AirNav   Pilot Hours Calculator
 
 1744 users online  

CD14 J & S Airport
Bennett, Colorado, USA

GOING TO BENNETT?


FAA INFORMATION EFFECTIVE 07 OCTOBER 2021

Location

FAA Identifier: CD14
Lat/Long: 39-49-43.9440N 104-26-13.8560W
39-49.732400N 104-26.230933W
39.8288733,-104.4371822
(estimated)
Elevation: 5320 ft. / 1622 m (estimated)
Variation: 11E (1985)
From city: 4 miles N of BENNETT, CO
Time zone: UTC -6 (UTC -7 during Standard Time)
Zip code: 80102

Airport Operations

Airport use: Private use. Permission required prior to landing
Activation date: 01/1988
Control tower: no
ARTCC: DENVER CENTER
FSS: DENVER FLIGHT SERVICE STATION
Attendance: UNATNDD
Segmented circle: no

Airport Communications

WX AWOS-3 at CFO (5 nm SW): 119.025 (303-261-9104)
WX ASOS at DEN (11 nm W): PHONE 303-342-1920

Nearby radio navigation aids

VOR radial/distance  VOR name  Freq  Var
DVVr107/9.5MILE HIGH VORTAC114.7008E
DENr077/10.3DENVER VOR/DME117.9008E
FQFr035/11.9FALCON VORTAC116.3011E
BJCr088/32.7JEFFCO VOR/DME115.4011E

Airport Services

Runway Information

Runway 17/35

Dimensions: 2600 x 60 ft. / 792 x 18 m
Surface: dirt
RUNWAY 17  RUNWAY 35
Traffic pattern: leftleft

Airport Ownership and Management from official FAA records

Ownership: Privately-owned
Owner: JOYCE POWELL
7455 CONVERSE RD
BENNETT, CO 80102
Phone 303-644-5028
Manager: GERALD SCHROEDER
3851 IMBODEN RD.
WATKINS, CO 80137
Phone 303-261-9386

Airport Operational Statistics

Aircraft based on the field: 1
Single engine airplanes: 1
    

Additional Remarks

FOR CD CTC DENVER APCH AT 303-342-1916.

Instrument Procedures

There are no published instrument procedures at CD14.

Some nearby airports with instrument procedures:

KCFO - Colorado Air and Space Port Airport (5 nm SW)
KDEN - Denver International Airport (11 nm W)
KBKF - Buckley Air Force Base (16 nm SW)
KAPA - Centennial Airport (25 nm SW)
KEIK - Erie Municipal Airport (30 nm W)
 
Loc | Ops | Rwys | IFR | FBO | Links
Com | Nav | Svcs | Stats | Notes

AirBoss

 
Aerial photo
No photo
 
Sectional chart

 
Airport distance calculator
Flying to J & S Airport? Find the distance to fly.

From to CD14

Sunrise and sunset
Times for 19-Oct-2021
 Local
(UTC-6)
 Zulu
(UTC)
Morning civil twilight06:4612:46
Sunrise07:1313:13
Sunset18:1200:12
Evening civil twilight18:4000:40

Current date and time
Zulu (UTC)  19-Oct-2021 16:50:59
Local (UTC-6)  19-Oct-2021 10:50:59
 
METAR
KCFO 
5nm SW 
191547Z 32012G18KT 10SM FEW080 13/01 A2987
KDEN 
10nm W 
191553Z 35016G22KT 10SM FEW090 SCT120 13/01 A2985 RMK AO2 SLP060 T01280011 $
KBKF 
16nm SW 
191558Z 35006KT 10SM SCT090 BKN120 BKN200 11/00 A2988 RMK AO2A SLP078 T01110002
TAF
KDEN 
10nm W 
191423Z 1914/2018 34015G25KT P6SM SCT090 SCT150 FM192200 02015G25KT P6SM SCT080 SCT150 FM200300 04007KT P6SM FEW100 SCT150 FM200800 20006KT P6SM FEW100
KBKF 
16nm SW 
190905Z 1909/2015 21006KT 9999 FEW200 QNH2973INS BECMG 1915/1916 28015G20KT 9999 FEW100 SCT160 QNH2987INS BECMG 1923/1924 35010G15KT 9999 SCT030 BKN060 QNH2993INS BECMG 2003/2004 02009KT 9999 FEW010 SCT050 SCT150 QNH3007INS BECMG 2009/2010 VRB06KT 9999 FEW100 SCT150 QNH3017INS TX14/1921Z TN01/2008Z
NOTAMs
Click for the latest NOTAMs
NOTAMs are issued by the DoD/FAA and will open in a separate window not controlled by AirNav.

 

 
 

Would you like to see your business listed on this page?

 If your business provides an interesting product or service to pilots, flight crews, aircraft, or users of the J & S Airport, you should consider listing it here.  To start the listing process, click on the button below
 
Add a business
 

Other Pages about J & S Airport

Update a link
 
Copyright © AirNav, LLC. All rights reserved. Privacy Policy  Contact